Time;durP1;ratioP1;P1;durP2;ratioP2;P2;SDS_P1;SDS_P2;PMS_P1;PMS_P2;Temp;Humidity;BMP_temperature;BMP_pressure;BME280_temperature;BME280_humidity;BME280_pressure;Samples;Min_cycle;Max_cycle;Signal;HPM_P1;HPM_P2
2022/06/08 00:02:18;;;;;;;13.93;13.43;;;16.30;64.60;;;;;;5031642;28;20802;-85
2022/06/08 00:04:44;;;;;;;13.90;13.40;;;16.30;64.40;;;;;;5032653;28;20419;-84
2022/06/08 00:07:10;;;;;;;15.47;14.47;;;16.20;63.80;;;;;;5032746;28;20974;-85
2022/06/08 00:09:35;;;;;;;14.60;13.90;;;16.20;63.90;;;;;;5032110;28;20227;-85
2022/06/08 00:12:03;;;;;;;13.90;13.40;;;16.20;64.20;;;;;;5032741;28;20904;-85
2022/06/08 00:14:29;;;;;;;14.13;13.53;;;16.10;65.80;;;;;;5033327;28;20173;-84
2022/06/08 00:16:54;;;;;;;13.63;13.13;;;16.20;65.30;;;;;;5031528;28;20426;-85
2022/06/08 00:19:20;;;;;;;14.27;13.57;;;16.20;65.60;;;;;;5032065;28;20415;-85
2022/06/08 00:21:46;;;;;;;15.03;14.40;;;16.20;65.40;;;;;;5031764;28;20216;-85
2022/06/08 00:24:11;;;;;;;15.50;14.70;;;16.20;65.60;;;;;;5029522;28;20702;-85
2022/06/08 00:26:37;;;;;;;15.03;14.43;;;16.20;64.00;;;;;;5031829;28;20180;-85
2022/06/08 00:29:04;;;;;;;14.70;14.10;;;16.20;65.00;;;;;;5032058;28;20672;-85
2022/06/08 00:31:30;;;;;;;15.17;14.57;;;16.20;65.00;;;;;;5031730;28;20238;-86
2022/06/08 00:33:55;;;;;;;14.87;14.27;;;16.20;64.90;;;;;;5033033;28;20416;-85
2022/06/08 00:36:21;;;;;;;15.10;14.60;;;16.20;64.20;;;;;;5031600;28;20546;-86
2022/06/08 00:38:47;;;;;;;15.77;15.17;;;16.20;64.10;;;;;;5032588;28;20185;-86
2022/06/08 00:41:25;;;;;;;15.90;14.83;;;16.20;64.80;;;;;;5030118;28;20172;-85
2022/06/08 00:43:51;;;;;;;15.27;14.67;;;16.10;64.20;;;;;;5030014;28;20187;-86
2022/06/08 00:46:17;;;;;;;15.93;15.03;;;16.10;64.80;;;;;;5030428;28;20411;-85
2022/06/08 00:48:52;;;;;;;16.10;15.50;;;16.10;65.00;;;;;;5031164;28;20525;-85
2022/06/08 00:51:18;;;;;;;15.80;15.20;;;16.20;62.90;;;;;;5031155;28;20546;-86
2022/06/08 00:53:53;;;;;;;15.63;15.03;;;16.20;61.90;;;;;;5031371;28;20426;-85
2022/06/08 00:56:25;;;;;;;15.97;15.37;;;16.20;61.80;;;;;;5031528;28;20997;-86
2022/06/08 00:58:52;;;;;;;16.07;15.47;;;16.10;63.20;;;;;;5030782;28;20504;-85
2022/06/08 01:01:17;;;;;;;16.10;15.50;;;16.00;62.40;;;;;;5030863;28;20418;-85
2022/06/08 01:03:43;;;;;;;16.10;15.50;;;16.10;62.40;;;;;;5030322;28;20415;-86
2022/06/08 01:06:24;;;;;;;16.57;15.87;;;16.10;61.90;;;;;;5030962;28;20621;-86
2022/06/08 01:08:54;;;;;;;15.93;15.23;;;16.00;61.50;;;;;;5031148;28;20299;-86
2022/06/08 01:11:39;;;;;;;15.53;14.93;;;16.00;61.80;;;;;;5030238;28;20828;-85
2022/06/08 01:14:10;;;;;;;15.50;14.90;;;16.00;61.60;;;;;;5032293;28;20415;-85
2022/06/08 01:16:39;;;;;;;15.30;14.70;;;16.00;64.00;;;;;;5030319;28;20502;-85
2022/06/08 01:19:07;;;;;;;16.13;15.40;;;16.00;64.00;;;;;;5031114;28;20415;-85
2022/06/08 01:21:32;;;;;;;15.20;14.70;;;15.90;63.90;;;;;;5031093;28;20767;-85
2022/06/08 01:24:04;;;;;;;16.33;15.63;;;15.90;64.10;;;;;;5031886;28;20565;-85
2022/06/08 01:26:53;;;;;;;15.53;14.93;;;15.90;61.90;;;;;;5030890;28;20176;-86
2022/06/08 01:29:51;;;;;;;16.10;15.30;;;16.00;62.40;;;;;;5030567;28;20544;-86
2022/06/08 01:32:24;;;;;;;16.15;15.50;;;15.90;62.50;;;;;;5028441;28;20448;-86
2022/06/08 01:35:11;;;;;;;16.47;15.60;;;15.90;62.20;;;;;;5030812;28;20199;-84
2022/06/08 01:37:42;;;;;;;15.60;15.10;;;15.80;63.40;;;;;;5029847;28;20938;-85
2022/06/08 01:40:23;;;;;;;16.70;15.50;;;15.80;63.40;;;;;;5030962;28;20458;-85
2022/06/08 01:43:01;;;;;;;15.80;15.20;;;15.80;63.80;;;;;;5029871;28;20411;-85
2022/06/08 01:45:40;;;;;;;16.10;15.50;;;15.70;63.20;;;;;;5029052;28;20422;-85
2022/06/08 01:48:34;;;;;;;15.70;15.10;;;15.80;63.40;;;;;;5029962;28;20863;-85
2022/06/08 01:51:26;;;;;;;16.63;15.73;;;15.70;63.10;;;;;;5031189;28;20424;-84
2022/06/08 01:54:13;;;;;;;15.60;15.10;;;15.60;63.60;;;;;;4993213;28;20462;-85
2022/06/08 01:56:46;;;;;;;15.77;15.17;;;15.60;63.90;;;;;;5027923;28;20415;-85
2022/06/08 01:59:36;;;;;;;15.80;15.20;;;15.60;64.60;;;;;;5030635;28;20451;-85
2022/06/08 02:02:09;;;;;;;16.00;15.20;;;15.60;65.10;;;;;;5028548;28;20847;-85
2022/06/08 02:04:54;;;;;;;16.10;15.50;;;15.70;64.70;;;;;;5028837;28;20411;-85
2022/06/08 02:07:44;;;;;;;16.93;16.17;;;15.70;64.30;;;;;;5029028;28;20418;-86
2022/06/08 02:10:20;;;;;;;16.40;15.80;;;15.70;64.60;;;;;;5029534;28;20975;-85
2022/06/08 02:12:56;;;;;;;17.50;16.70;;;15.70;64.10;;;;;;5028910;28;20837;-85
2022/06/08 02:15:44;;;;;;;17.30;16.50;;;15.60;64.10;;;;;;5029113;28;20461;-85
2022/06/08 02:18:23;;;;;;;17.50;16.63;;;15.60;64.00;;;;;;5029408;28;20412;-85
2022/06/08 02:21:09;;;;;;;16.77;16.07;;;15.70;63.10;;;;;;5027658;28;20411;-85
2022/06/08 02:23:48;;;;;;;16.70;16.00;;;15.70;64.60;;;;;;5029553;28;20510;-86
2022/06/08 02:26:18;;;;;;;16.50;15.90;;;15.60;63.70;;;;;;5026621;28;20419;-85
2022/06/08 02:28:50;;;;;;;16.77;16.07;;;15.60;64.70;;;;;;5028093;28;20463;-85
2022/06/08 02:31:33;;;;;;;16.97;16.27;;;15.60;64.30;;;;;;5028281;28;20427;-90
2022/06/08 02:34:28;;;;;;;16.90;16.30;;;15.50;63.50;;;;;;5013247;28;20466;-87
2022/06/08 02:37:19;;;;;;;16.90;16.20;;;15.40;65.50;;;;;;5029972;28;20423;-86
2022/06/08 02:40:12;;;;;;;16.53;15.90;;;15.40;64.60;;;;;;5016135;28;20984;-86
2022/06/08 02:42:48;;;;;;;17.60;16.00;;;15.40;63.60;;;;;;5029366;28;20426;-86
2022/06/08 02:45:40;;;;;;;17.63;16.83;;;15.40;64.10;;;;;;5027740;28;20446;-86
2022/06/08 02:48:10;;;;;;;16.93;16.23;;;15.40;63.30;;;;;;5017919;28;20426;-86
2022/06/08 02:50:36;;;;;;;16.70;16.10;;;15.40;63.10;;;;;;5030658;28;20436;-86
2022/06/08 02:53:31;;;;;;;17.40;16.70;;;15.40;63.00;;;;;;5031992;28;20908;-86
2022/06/08 02:55:59;;;;;;;18.05;17.15;;;15.30;62.60;;;;;;5030938;28;20413;-87
2022/06/08 02:58:57;;;;;;;17.37;16.57;;;15.30;63.20;;;;;;5031166;28;20546;-86
2022/06/08 03:01:32;;;;;;;17.83;17.13;;;15.30;63.60;;;;;;5030473;28;20755;-86
2022/06/08 03:04:07;;;;;;;18.70;17.80;;;15.20;63.30;;;;;;5027428;28;20518;-86
2022/06/08 03:06:43;;;;;;;18.67;17.87;;;15.10;64.00;;;;;;5028351;28;20423;-86
2022/06/08 03:09:13;;;;;;;18.93;17.97;;;15.10;63.80;;;;;;5027509;28;20511;-85
2022/06/08 03:11:45;;;;;;;19.50;18.40;;;15.10;63.70;;;;;;5029021;28;20510;-86
2022/06/08 03:14:14;;;;;;;19.37;18.33;;;15.10;63.40;;;;;;5028597;28;20953;-86
2022/06/08 03:17:01;;;;;;;19.77;18.77;;;15.10;62.40;;;;;;5029291;28;20415;-86
2022/06/08 03:19:30;;;;;;;17.80;17.00;;;15.20;62.40;;;;;;5029529;28;20411;-86
2022/06/08 03:21:56;;;;;;;19.10;18.07;;;15.10;62.70;;;;;;5027276;28;20426;-86
2022/06/08 03:24:23;;;;;;;18.80;18.00;;;15.10;62.30;;;;;;5027631;28;20427;-86
2022/06/08 03:26:58;;;;;;;19.67;18.57;;;15.10;62.00;;;;;;5028695;28;20447;-86
2022/06/08 03:29:26;;;;;;;19.07;18.27;;;15.10;62.50;;;;;;5027125;28;20467;-86
2022/06/08 03:31:52;;;;;;;18.87;18.17;;;15.10;62.00;;;;;;5027619;28;20434;-86
2022/06/08 03:34:18;;;;;;;20.70;19.77;;;15.20;63.00;;;;;;5027753;28;20420;-86
2022/06/08 03:36:44;;;;;;;20.20;19.20;;;15.30;61.00;;;;;;5029062;28;20442;-86
2022/06/08 03:39:10;;;;;;;21.63;20.63;;;15.30;60.40;;;;;;5025082;28;20200;-86
2022/06/08 03:41:35;;;;;;;20.83;20.03;;;15.30;60.50;;;;;;5027158;28;20422;-86
2022/06/08 03:44:03;;;;;;;22.43;21.27;;;15.30;60.20;;;;;;5029667;28;20795;-86
2022/06/08 03:46:31;;;;;;;21.80;21.00;;;15.20;60.90;;;;;;5028110;28;20176;-86
2022/06/08 03:48:57;;;;;;;20.70;19.60;;;15.30;61.00;;;;;;5029188;28;20455;-86
2022/06/08 03:51:23;;;;;;;20.50;19.50;;;15.30;60.50;;;;;;5028290;28;20419;-86
2022/06/08 03:53:56;;;;;;;21.10;20.20;;;15.30;61.70;;;;;;5028454;28;20223;-86
2022/06/08 03:56:25;;;;;;;20.63;19.83;;;15.30;61.70;;;;;;5027689;28;20403;-86
2022/06/08 03:58:51;;;;;;;21.07;20.17;;;15.40;61.60;;;;;;5026969;28;20423;-87
2022/06/08 04:01:18;;;;;;;20.13;19.30;;;15.40;62.60;;;;;;5029452;28;20832;-85
2022/06/08 04:03:43;;;;;;;21.40;20.50;;;15.40;62.00;;;;;;5029192;28;20455;-87
2022/06/08 04:06:09;;;;;;;22.43;21.43;;;15.40;60.30;;;;;;5029671;28;20443;-85
2022/06/08 04:08:37;;;;;;;22.50;21.30;;;15.40;61.10;;;;;;5026190;28;20608;-85
2022/06/08 04:11:03;;;;;;;21.07;20.17;;;15.40;60.90;;;;;;5027189;28;20172;-84
2022/06/08 04:13:29;;;;;;;20.80;19.80;;;15.50;60.30;;;;;;5026842;28;20423;-84
2022/06/08 04:15:55;;;;;;;21.07;20.07;;;15.50;59.90;;;;;;5028732;28;20176;-83
2022/06/08 04:18:23;;;;;;;20.80;19.70;;;15.40;59.40;;;;;;5028935;28;20543;-84
2022/06/08 04:20:53;;;;;;;22.37;21.10;;;15.40;57.90;;;;;;5031555;28;20591;-84
2022/06/08 04:23:21;;;;;;;21.73;20.73;;;15.50;57.90;;;;;;5030637;28;20455;-85
2022/06/08 04:25:48;;;;;;;20.17;19.37;;;15.60;57.70;;;;;;5026997;28;20424;-83
2022/06/08 04:28:14;;;;;;;22.10;21.00;;;15.60;57.90;;;;;;5029739;28;20454;-84
2022/06/08 04:30:40;;;;;;;22.33;21.23;;;15.50;58.10;;;;;;5030821;28;20899;-84
2022/06/08 04:33:06;;;;;;;22.67;21.67;;;15.50;57.70;;;;;;5030460;28;20411;-85
2022/06/08 04:35:32;;;;;;;22.40;21.50;;;15.50;57.70;;;;;;5028241;28;20431;-86
2022/06/08 04:37:59;;;;;;;21.87;20.87;;;15.70;56.80;;;;;;5030887;28;20535;-86
2022/06/08 04:40:25;;;;;;;22.00;21.03;;;15.70;56.50;;;;;;5030870;28;20411;-87
2022/06/08 04:42:52;;;;;;;20.60;19.70;;;15.70;55.50;;;;;;5030277;28;20407;-89
2022/06/08 04:45:18;;;;;;;22.30;21.30;;;15.70;56.40;;;;;;5031290;28;20502;-88
2022/06/08 04:47:44;;;;;;;21.80;21.00;;;15.70;56.90;;;;;;5027974;28;20412;-86
2022/06/08 04:50:10;;;;;;;22.10;21.20;;;15.70;56.90;;;;;;5029647;28;20532;-86
2022/06/08 04:52:37;;;;;;;20.63;19.80;;;15.70;56.40;;;;;;5011936;28;20181;-88
2022/06/08 04:55:05;;;;;;;21.50;20.60;;;15.60;56.30;;;;;;5009765;28;20847;-83
2022/06/08 04:57:33;;;;;;;20.70;19.70;;;15.60;56.40;;;;;;5010027;28;20456;-87
2022/06/08 04:59:59;;;;;;;22.63;21.60;;;15.60;56.60;;;;;;5009029;28;20428;-86
2022/06/08 05:02:44;;;;;;;23.50;22.40;;;15.50;57.70;;;;;;5008498;28;20423;-89
2022/06/08 05:05:15;;;;;;;23.63;22.53;;;15.50;56.90;;;;;;5011411;28;20468;-86
2022/06/08 05:07:40;;;;;;;21.50;20.67;;;15.70;55.40;;;;;;5010504;28;20425;-86
2022/06/08 05:10:09;;;;;;;22.63;21.70;;;15.60;56.30;;;;;;5010617;28;20464;-86
2022/06/08 05:12:36;;;;;;;22.93;21.73;;;15.70;55.50;;;;;;5010568;28;20178;-89
2022/06/08 05:15:07;;;;;;;24.40;23.40;;;15.60;55.00;;;;;;5011406;28;20428;-85
2022/06/08 05:17:34;;;;;;;25.10;24.00;;;15.70;53.80;;;;;;5010738;28;20412;-86
2022/06/08 05:20:01;;;;;;;23.07;22.00;;;15.70;55.40;;;;;;5011163;28;20420;-90
2022/06/08 05:22:27;;;;;;;21.90;21.00;;;15.60;55.80;;;;;;5011474;28;20422;-87
2022/06/08 05:24:54;;;;;;;24.00;22.87;;;15.70;54.10;;;;;;5012389;28;20423;-89
2022/06/08 05:27:20;;;;;;;23.77;22.77;;;15.70;53.80;;;;;;5010365;28;20416;-86
2022/06/08 05:29:45;;;;;;;21.90;20.90;;;15.80;55.40;;;;;;5011088;28;20518;-86
2022/06/08 05:32:11;;;;;;;22.03;21.13;;;15.90;54.90;;;;;;5012445;28;20173;-86
2022/06/08 05:34:37;;;;;;;23.27;22.17;;;16.00;54.50;;;;;;5010191;28;20642;-85
2022/06/08 05:37:02;;;;;;;24.27;22.80;;;16.00;54.70;;;;;;5009758;28;20173;-87
2022/06/08 05:39:28;;;;;;;23.87;22.87;;;16.00;54.90;;;;;;5008707;28;20195;-87
2022/06/08 05:41:54;;;;;;;24.17;22.87;;;16.10;52.80;;;;;;5011704;28;20421;-87
2022/06/08 05:44:20;;;;;;;24.10;22.83;;;16.20;54.40;;;;;;5012373;28;20280;-87
2022/06/08 05:46:48;;;;;;;24.77;23.40;;;16.20;53.60;;;;;;5009187;28;20263;-87
2022/06/08 05:49:15;;;;;;;23.10;22.20;;;16.20;53.60;;;;;;5009595;28;20460;-87
2022/06/08 05:51:41;;;;;;;23.50;22.60;;;16.20;55.40;;;;;;5010032;28;20412;-87
2022/06/08 05:54:07;;;;;;;24.30;23.10;;;16.20;53.00;;;;;;5010328;28;20423;-86
2022/06/08 05:56:33;;;;;;;25.27;24.10;;;16.20;52.00;;;;;;5010512;28;20421;-86
2022/06/08 05:58:58;;;;;;;24.25;22.98;;;16.30;52.20;;;;;;5007385;28;20419;-85
2022/06/08 06:01:24;;;;;;;23.90;22.80;;;16.30;52.10;;;;;;5010150;28;20180;-84
2022/06/08 06:03:53;;;;;;;25.03;23.30;;;16.40;53.90;;;;;;5009008;28;20184;-84
2022/06/08 06:06:19;;;;;;;23.50;22.40;;;16.60;52.10;;;;;;5008718;28;20542;-83
2022/06/08 06:08:45;;;;;;;22.57;21.50;;;16.70;50.80;;;;;;5006652;28;20464;-83
2022/06/08 06:11:13;;;;;;;23.50;22.60;;;16.80;50.90;;;;;;5005699;28;20178;-83
2022/06/08 06:13:39;;;;;;;24.37;23.30;;;16.70;51.40;;;;;;5006955;28;20424;-83
2022/06/08 06:16:05;;;;;;;24.70;23.53;;;16.70;51.00;;;;;;5007338;28;20413;-83
2022/06/08 06:18:31;;;;;;;26.40;25.30;;;16.70;51.30;;;;;;5005758;28;20416;-83
2022/06/08 06:20:57;;;;;;;25.00;23.70;;;16.90;49.10;;;;;;5007211;28;20547;-83
2022/06/08 06:23:25;;;;;;;26.17;24.70;;;17.00;49.90;;;;;;5007053;28;20184;-83
2022/06/08 06:25:50;;;;;;;25.97;24.60;;;17.10;49.70;;;;;;5006804;28;20192;-83
2022/06/08 06:28:16;;;;;;;23.13;22.13;;;17.00;50.20;;;;;;5006380;28;20459;-83
2022/06/08 06:30:42;;;;;;;24.83;23.57;;;17.10;49.10;;;;;;5005333;28;20192;-84
2022/06/08 06:33:10;;;;;;;22.77;21.87;;;17.20;48.90;;;;;;5007135;28;20177;-84
2022/06/08 06:35:35;;;;;;;22.73;21.73;;;17.30;48.00;;;;;;5005996;28;20201;-83
2022/06/08 06:38:01;;;;;;;23.60;22.37;;;17.20;49.10;;;;;;5005633;28;20502;-82
2022/06/08 06:40:27;;;;;;;24.00;23.00;;;17.20;50.70;;;;;;5005696;28;20529;-82
2022/06/08 06:42:52;;;;;;;24.20;23.10;;;17.10;48.40;;;;;;5006933;28;20181;-82
2022/06/08 06:45:18;;;;;;;23.10;21.97;;;17.30;48.00;;;;;;5006483;28;20560;-83
2022/06/08 06:47:44;;;;;;;24.73;23.73;;;17.20;48.30;;;;;;5004825;28;20389;-82
2022/06/08 06:50:13;;;;;;;25.20;23.93;;;17.20;48.70;;;;;;5005306;28;20569;-85
2022/06/08 06:52:39;;;;;;;24.23;23.33;;;17.20;49.00;;;;;;5017033;28;20181;-84
2022/06/08 06:55:05;;;;;;;25.80;24.50;;;17.20;49.10;;;;;;5025636;28;20418;-84
2022/06/08 06:57:30;;;;;;;24.77;23.80;;;17.30;48.00;;;;;;5025380;28;20567;-83
2022/06/08 06:59:56;;;;;;;27.37;25.73;;;17.30;47.60;;;;;;5025782;28;20636;-83
2022/06/08 07:02:22;;;;;;;25.00;23.87;;;17.40;46.70;;;;;;5026748;28;20183;-83
2022/06/08 07:04:49;;;;;;;25.37;24.07;;;17.40;47.50;;;;;;5028729;28;20857;-83
2022/06/08 07:07:16;;;;;;;24.90;23.60;;;17.50;46.80;;;;;;5029941;28;20267;-83
2022/06/08 07:09:42;;;;;;;26.30;24.63;;;17.60;46.20;;;;;;5030472;28;20902;-84
2022/06/08 07:12:12;;;;;;;25.87;23.87;;;17.60;45.60;;;;;;5031009;28;20407;-84
2022/06/08 07:14:38;;;;;;;25.27;24.03;;;17.60;47.40;;;;;;5030840;28;20785;-84
2022/06/08 07:17:03;;;;;;;25.43;24.43;;;17.60;46.60;;;;;;5030619;28;20407;-84
2022/06/08 07:19:29;;;;;;;27.63;26.03;;;17.60;46.30;;;;;;5030735;28;20172;-84
2022/06/08 07:21:55;;;;;;;26.57;25.30;;;17.60;46.20;;;;;;5030524;28;20185;-84
2022/06/08 07:24:24;;;;;;;26.00;24.70;;;17.60;45.80;;;;;;5030608;28;20206;-84
2022/06/08 07:26:50;;;;;;;26.20;25.10;;;17.60;46.60;;;;;;5030220;28;20760;-83
2022/06/08 07:29:16;;;;;;;26.37;24.87;;;17.50;44.30;;;;;;5030287;28;20459;-84
2022/06/08 07:31:43;;;;;;;26.80;25.00;;;17.60;45.70;;;;;;5030250;28;20826;-83
2022/06/08 07:34:12;;;;;;;27.43;26.27;;;17.70;44.40;;;;;;5030319;28;20412;-83
2022/06/08 07:36:38;;;;;;;26.10;25.00;;;17.70;43.80;;;;;;5029800;28;20412;-84
2022/06/08 07:39:04;;;;;;;24.97;23.87;;;17.80;45.10;;;;;;5030490;28;20411;-84
2022/06/08 07:41:30;;;;;;;25.90;24.53;;;17.80;45.50;;;;;;5030647;28;20418;-84
2022/06/08 07:43:55;;;;;;;25.40;24.20;;;17.90;44.10;;;;;;5030759;28;20419;-84
2022/06/08 07:46:21;;;;;;;25.27;24.00;;;17.70;44.70;;;;;;5031707;28;20184;-84
2022/06/08 07:51:33;;;;;;;25.23;24.23;;;17.90;42.90;;;;;;5037299;28;20580;-83
2022/06/08 07:54:00;;;;;;;25.90;24.80;;;17.90;43.10;;;;;;5035127;28;20995;-84
2022/06/08 07:56:34;;;;;;;26.40;25.33;;;18.00;43.30;;;;;;5035131;28;20419;-84
2022/06/08 07:59:03;;;;;;;26.63;25.57;;;18.20;42.10;;;;;;5034024;28;20450;-84
2022/06/08 08:01:32;;;;;;;27.93;26.30;;;18.20;43.30;;;;;;5034026;28;20466;-84
2022/06/08 08:03:58;;;;;;;28.23;26.80;;;18.20;43.10;;;;;;5033848;28;20480;-84
2022/06/08 08:06:24;;;;;;;27.20;26.10;;;18.30;42.60;;;;;;5033524;28;20427;-84
2022/06/08 08:08:50;;;;;;;26.23;25.03;;;18.40;41.80;;;;;;5033786;28;20458;-83
2022/06/08 08:11:15;;;;;;;28.20;26.90;;;18.40;42.10;;;;;;5033863;28;20180;-83
2022/06/08 08:13:41;;;;;;;27.40;26.30;;;18.50;42.10;;;;;;5033422;28;20188;-84
2022/06/08 08:16:07;;;;;;;26.00;24.90;;;18.60;41.30;;;;;;5033435;28;20203;-84
2022/06/08 08:18:33;;;;;;;26.73;25.63;;;18.60;41.20;;;;;;5033521;28;20415;-84
2022/06/08 08:20:58;;;;;;;28.63;27.53;;;18.60;42.10;;;;;;5033606;28;20188;-84
2022/06/08 08:23:24;;;;;;;28.70;27.50;;;18.70;40.10;;;;;;5033355;28;20177;-84
2022/06/08 08:25:51;;;;;;;28.40;27.10;;;18.80;39.30;;;;;;5033334;28;20181;-84
2022/06/08 08:28:18;;;;;;;27.00;25.90;;;18.90;39.40;;;;;;5033403;28;20259;-84
2022/06/08 08:30:43;;;;;;;28.50;27.10;;;19.00;38.80;;;;;;5033257;28;20454;-83
2022/06/08 08:33:09;;;;;;;26.70;25.40;;;19.10;38.50;;;;;;5033322;28;20419;-83
2022/06/08 08:35:35;;;;;;;27.63;26.30;;;19.10;36.50;;;;;;5032790;28;20177;-83
2022/06/08 08:38:01;;;;;;;28.57;27.27;;;19.30;36.60;;;;;;5033362;28;20179;-84
2022/06/08 08:40:45;;;;;;;27.90;26.70;;;19.30;36.70;;;;;;5033048;28;20860;-83
2022/06/08 08:43:24;;;;;;;28.40;27.20;;;19.30;37.60;;;;;;5032945;28;20494;-84
2022/06/08 08:45:59;;;;;;;29.23;27.53;;;19.40;38.20;;;;;;5033780;28;20443;-83
2022/06/08 08:48:34;;;;;;;27.20;25.83;;;19.40;37.50;;;;;;5033910;28;20458;-82
2022/06/08 08:51:24;;;;;;;28.47;27.17;;;19.60;36.20;;;;;;5033003;28;20984;-83
2022/06/08 08:54:26;;;;;;;27.00;25.63;;;19.70;35.10;;;;;;5027550;28;20482;-83
2022/06/08 08:56:58;;;;;;;25.73;24.53;;;19.70;36.10;;;;;;5032651;28;20407;-83
2022/06/08 08:59:28;;;;;;;26.70;25.50;;;19.80;35.90;;;;;;5030276;28;20931;-83
2022/06/08 09:01:55;;;;;;;28.00;26.53;;;19.80;34.70;;;;;;5032829;28;20439;-84
2022/06/08 09:04:29;;;;;;;27.00;25.60;;;19.90;35.00;;;;;;5032801;28;20419;-84
2022/06/08 09:06:55;;;;;;;27.33;25.93;;;19.90;35.00;;;;;;5032285;28;20415;-84
2022/06/08 09:09:28;;;;;;;25.30;23.77;;;20.00;35.00;;;;;;5032484;28;20459;-85
2022/06/08 09:11:53;;;;;;;26.93;25.43;;;19.90;35.00;;;;;;5032454;28;20416;-84
2022/06/08 09:14:25;;;;;;;26.57;25.37;;;20.00;34.80;;;;;;5032540;28;20493;-84
2022/06/08 09:17:08;;;;;;;26.90;25.70;;;20.00;37.00;;;;;;5032094;28;20208;-84
2022/06/08 09:19:46;;;;;;;27.53;26.13;;;20.00;36.10;;;;;;5032319;28;20415;-84
2022/06/08 09:22:13;;;;;;;26.87;25.87;;;20.10;35.70;;;;;;5032321;28;20426;-84
2022/06/08 09:24:50;;;;;;;27.80;26.57;;;20.10;32.00;;;;;;5032296;28;20422;-84
2022/06/08 09:27:24;;;;;;;25.30;24.10;;;20.10;32.10;;;;;;5031817;28;20835;-84
2022/06/08 09:30:12;;;;;;;27.37;26.03;;;20.20;33.10;;;;;;5032365;28;20466;-84
2022/06/08 09:32:38;;;;;;;24.97;23.77;;;20.30;33.10;;;;;;5032085;28;20935;-83
2022/06/08 09:35:35;;;;;;;25.43;24.33;;;20.40;32.60;;;;;;5032297;28;20498;-83
2022/06/08 09:38:14;;;;;;;26.30;25.10;;;20.50;30.30;;;;;;5031685;28;20432;-83
2022/06/08 09:41:09;;;;;;;29.47;27.30;;;20.50;32.40;;;;;;5032037;28;20416;-83
2022/06/08 09:44:09;;;;;;;25.33;24.13;;;20.80;29.00;;;;;;5010227;28;20426;-84
2022/06/08 09:52:51;;;;;;;25.40;24.23;;;20.90;28.80;;;;;;5013253;28;20407;-83
2022/06/08 09:55:42;;;;;;;24.27;23.07;;;21.00;28.40;;;;;;5028344;28;20424;-83
2022/06/08 09:58:30;;;;;;;25.00;23.80;;;21.20;28.60;;;;;;5011524;28;20510;-83
2022/06/08 10:01:04;;;;;;;25.60;24.40;;;21.10;29.60;;;;;;5011999;28;20439;-83
2022/06/08 10:03:33;;;;;;;25.57;24.43;;;21.30;28.30;;;;;;5028135;28;20451;-83
2022/06/08 10:06:03;;;;;;;26.00;24.70;;;21.50;27.20;;;;;;5011391;28;20463;-83
2022/06/08 10:08:50;;;;;;;25.03;23.90;;;21.40;27.80;;;;;;5027172;28;20459;-83
2022/06/08 10:11:34;;;;;;;24.53;23.40;;;21.50;27.80;;;;;;5031495;28;20447;-83
2022/06/08 10:14:20;;;;;;;24.67;23.67;;;21.30;26.50;;;;;;5030584;28;20927;-84
2022/06/08 10:16:59;;;;;;;24.67;23.70;;;21.20;26.90;;;;;;5030453;28;20423;-84
2022/06/08 10:20:19;;;;;;;25.20;24.00;;;21.30;26.40;;;;;;5032381;28;20450;-83
2022/06/08 10:22:48;;;;;;;24.70;23.60;;;21.40;26.10;;;;;;5006830;28;20431;-83
2022/06/08 10:25:32;;;;;;;24.20;23.20;;;21.40;26.20;;;;;;5031293;28;20425;-83
2022/06/08 10:28:02;;;;;;;26.07;24.87;;;21.40;26.60;;;;;;5031239;28;20514;-83
2022/06/08 10:30:54;;;;;;;24.83;23.80;;;21.30;24.80;;;;;;5030773;28;21001;-83
2022/06/08 10:33:33;;;;;;;25.07;23.93;;;21.40;26.30;;;;;;5029019;28;20981;-83
2022/06/08 10:36:00;;;;;;;24.93;23.83;;;21.40;26.50;;;;;;5030564;28;20788;-83
2022/06/08 10:38:30;;;;;;;21.77;20.97;;;21.50;25.90;;;;;;5030684;28;20431;-84
2022/06/08 10:44:03;;;;;;;25.10;24.00;;;21.70;25.40;;;;;;5012398;28;20443;-84
2022/06/08 10:46:42;;;;;;;23.93;23.03;;;21.60;26.70;;;;;;5011008;28;20416;-84
2022/06/08 10:49:21;;;;;;;25.47;24.20;;;21.60;26.60;;;;;;5011371;28;20471;-85
2022/06/08 10:52:18;;;;;;;24.37;23.37;;;21.70;25.90;;;;;;5011434;28;20419;-82
2022/06/08 10:54:54;;;;;;;22.77;21.77;;;21.80;25.90;;;;;;5011220;28;20771;-85
2022/06/08 10:57:31;;;;;;;23.33;22.43;;;22.00;23.40;;;;;;5011042;28;20416;-85
2022/06/08 11:00:41;;;;;;;22.20;21.20;;;22.40;22.50;;;;;;5011547;28;20416;-81
2022/06/08 11:03:32;;;;;;;24.70;23.57;;;22.40;22.70;;;;;;4990856;28;20484;-82
2022/06/08 11:05:57;;;;;;;23.97;22.97;;;22.10;23.70;;;;;;4974488;28;20929;-83
2022/06/08 11:08:24;;;;;;;23.20;22.27;;;22.50;22.20;;;;;;4998267;28;20424;-82
2022/06/08 11:10:58;;;;;;;22.93;22.00;;;22.70;23.00;;;;;;5013001;28;20275;-82
2022/06/08 11:15:53;;;;;;;23.27;22.30;;;23.00;22.20;;;;;;5011970;28;20416;-81
2022/06/08 11:18:27;;;;;;;24.03;23.03;;;22.80;21.30;;;;;;5011326;28;20709;-82
2022/06/08 11:21:19;;;;;;;23.63;22.53;;;22.90;21.50;;;;;;5011129;28;20487;-81
2022/06/08 11:23:54;;;;;;;23.07;22.23;;;22.90;23.20;;;;;;5005216;28;20417;-84
2022/06/08 11:26:20;;;;;;;23.13;22.23;;;22.70;23.70;;;;;;5014621;28;20422;-82
2022/06/08 11:28:50;;;;;;;22.87;21.97;;;22.70;22.10;;;;;;5014537;28;20474;-82
2022/06/08 11:31:26;;;;;;;23.73;22.70;;;22.80;20.40;;;;;;5014854;28;20432;-82
2022/06/08 11:34:12;;;;;;;23.40;22.37;;;22.90;21.10;;;;;;5014749;28;20420;-82
2022/06/08 11:36:50;;;;;;;23.33;22.33;;;22.90;21.60;;;;;;5014595;28;20464;-82
2022/06/08 11:39:34;;;;;;;22.90;21.90;;;23.00;21.50;;;;;;5014831;28;20427;-82
2022/06/08 11:42:22;;;;;;;21.93;21.00;;;23.10;23.20;;;;;;5014290;28;20428;-82
2022/06/08 11:45:18;;;;;;;23.00;22.00;;;22.90;22.60;;;;;;5014669;28;20435;-82
2022/06/08 11:48:07;;;;;;;23.07;22.10;;;22.70;22.60;;;;;;4988753;28;20427;-83
2022/06/08 11:50:52;;;;;;;22.60;21.73;;;22.70;22.20;;;;;;5009587;28;20523;-82
2022/06/08 11:53:29;;;;;;;23.27;22.23;;;22.60;21.70;;;;;;5015384;28;20777;-82
2022/06/08 11:56:13;;;;;;;21.50;20.70;;;22.70;20.80;;;;;;5014458;28;20424;-82
2022/06/08 11:58:44;;;;;;;22.43;21.43;;;23.00;21.80;;;;;;5014524;28;20428;-82
2022/06/08 12:01:19;;;;;;;22.90;22.00;;;23.20;21.30;;;;;;5014402;28;20408;-82
2022/06/08 12:03:47;;;;;;;23.27;22.37;;;23.20;22.00;;;;;;5029750;28;20452;-82
2022/06/08 12:06:22;;;;;;;23.47;22.57;;;23.10;20.50;;;;;;5033537;28;20411;-84
2022/06/08 12:08:57;;;;;;;22.50;21.60;;;22.90;21.20;;;;;;5033535;28;20703;-81
2022/06/08 12:11:25;;;;;;;22.23;21.37;;;22.90;21.60;;;;;;5034198;28;20534;-82
2022/06/08 12:14:13;;;;;;;22.97;21.87;;;23.00;20.00;;;;;;5034114;28;20427;-82
2022/06/08 12:16:53;;;;;;;24.33;23.10;;;23.10;19.80;;;;;;5032666;28;20472;-85
2022/06/08 12:19:20;;;;;;;23.07;22.27;;;23.30;18.80;;;;;;5033957;28;20207;-80
2022/06/08 12:21:49;;;;;;;23.90;22.60;;;23.30;19.60;;;;;;5033779;28;20422;-84
2022/06/08 12:24:14;;;;;;;24.00;23.00;;;23.40;20.80;;;;;;5033704;28;20514;-82
2022/06/08 12:26:59;;;;;;;23.50;22.60;;;23.40;19.50;;;;;;5033383;28;20514;-82
2022/06/08 12:29:37;;;;;;;23.90;23.00;;;23.20;21.60;;;;;;5033345;28;20266;-82
2022/06/08 12:32:06;;;;;;;23.70;22.67;;;23.20;21.30;;;;;;5033493;28;20419;-82
2022/06/08 12:34:42;;;;;;;24.03;23.10;;;23.20;19.60;;;;;;5033644;28;20518;-81
2022/06/08 12:37:26;;;;;;;24.40;23.40;;;23.10;19.70;;;;;;5033251;28;20415;-83
2022/06/08 12:39:53;;;;;;;24.30;23.00;;;23.10;18.80;;;;;;5033796;28;20839;-81
2022/06/08 12:42:46;;;;;;;23.73;22.90;;;23.10;20.20;;;;;;5033630;28;20428;-81
2022/06/08 12:45:30;;;;;;;24.10;23.10;;;23.10;19.40;;;;;;5033587;28;20415;-82
2022/06/08 12:47:56;;;;;;;23.63;22.77;;;23.00;20.10;;;;;;5034522;28;20782;-81
2022/06/08 12:50:25;;;;;;;23.63;22.60;;;23.10;20.60;;;;;;5033789;28;20459;-81
2022/06/08 12:52:51;;;;;;;23.87;22.87;;;23.30;19.60;;;;;;5033124;28;20465;-81
2022/06/08 12:55:21;;;;;;;23.90;22.90;;;23.40;19.00;;;;;;5033486;28;20416;-82
2022/06/08 12:57:47;;;;;;;23.60;22.63;;;23.30;20.20;;;;;;5033167;28;20832;-82
2022/06/08 13:00:23;;;;;;;24.20;23.20;;;23.20;20.40;;;;;;5033112;28;20420;-82
2022/06/08 13:02:50;;;;;;;23.87;22.97;;;23.30;20.00;;;;;;5032868;28;20438;-82
2022/06/08 13:05:28;;;;;;;27.40;25.97;;;23.50;19.40;;;;;;5032923;28;20419;-82
2022/06/08 13:07:55;;;;;;;23.60;22.60;;;23.70;19.80;;;;;;5032977;28;20450;-82
2022/06/08 13:10:23;;;;;;;25.37;24.07;;;23.60;19.00;;;;;;5032814;28;20884;-82